Kocevje, Slovenia
Current Conditions -  °F | °C
As of 6:00 AM on Wednesday 26 Nov 2014 (Local Time) from LJCE Reporting Station
Broken Clouds Broken Clouds  
Wind Chill: 36°   Ceiling: 5000
Heat Index: 39°   Visibility: 4mi
Dew Point: 36°   Wind: 5mph
Humidity: 87%   Direction: 80°E
Pressure: 30.24"   Gusts: NA
Location:  45.65°N, 14.86°E
Report Text: LJCE 260500Z 08004KT 6000 SCT020 BKN050 04/02 Q1024 RMK WHT
Loading
Personal Weather Stations






























Interactive Weather Map New forecast layout! Learn more

10-Day Weather Forecast

Advertisements
Track Severe Weather on mobile